createdAt,value
2018-11-23T18:02:33.028Z,25.62
2018-11-23T18:03:32.986Z,25.65
2018-11-23T18:04:32.945Z,25.57
2018-11-23T18:05:32.909Z,25.67
2018-11-23T18:06:32.835Z,25.64
2018-11-23T18:07:32.783Z,25.64
2018-11-23T18:08:38.695Z,25.64
2018-11-23T18:09:33.661Z,25.65
2018-11-23T18:10:32.575Z,25.74
2018-11-23T23:02:06.261Z,21.11
2018-11-23T23:03:06.211Z,21.17
2018-11-23T23:04:06.169Z,21.24
2018-11-23T23:05:06.123Z,21.27
2018-11-23T23:06:06.195Z,21.36
2018-11-23T23:08:44.975Z,17.54
2018-11-23T23:09:51.922Z,14.06
2018-11-23T23:10:45.738Z,11.57
2018-11-23T23:11:44.208Z,9.81
2018-11-23T23:12:45.939Z,8.53
2018-11-23T23:13:57.032Z,7.58
2018-11-23T23:14:44.251Z,6.76
2018-11-23T23:15:43.781Z,6.04
2018-11-23T23:16:49.570Z,5.45
2018-11-23T23:18:30.830Z,5.22
2018-11-23T23:18:44.088Z,4.94
2018-11-23T23:19:44.987Z,4.61
2018-11-23T23:20:48.309Z,4.39
2018-11-23T23:21:44.561Z,4.39
2018-11-23T23:22:44.095Z,4.19
2018-11-23T23:23:43.727Z,4.00
2018-11-23T23:24:43.787Z,3.82
2018-11-23T23:25:43.670Z,3.72
2018-11-23T23:26:44.476Z,3.53
2018-11-23T23:27:51.137Z,3.49
2018-11-23T23:28:43.654Z,3.42
2018-11-23T23:29:43.583Z,3.39
2018-11-23T23:30:43.585Z,3.30
2018-11-23T23:31:53.665Z,3.31
2018-11-23T23:33:30.681Z,3.25
2018-11-23T23:33:43.668Z,3.24
2018-11-23T23:34:43.549Z,3.25
2018-11-23T23:35:43.531Z,3.20
2018-11-23T23:36:43.595Z,3.20
2018-11-23T23:37:43.570Z,3.27
2018-11-23T23:38:44.830Z,3.25
2018-11-23T23:39:43.562Z,3.24
2018-11-23T23:40:43.485Z,3.20
2018-11-23T23:41:43.571Z,3.20
2018-11-23T23:42:43.481Z,3.23
2018-11-23T23:43:43.594Z,3.15
2018-11-23T23:44:43.511Z,3.16
2018-11-23T23:45:43.446Z,3.21
2018-11-23T23:46:51.718Z,3.20
2018-11-23T23:47:43.400Z,3.23
2018-11-23T23:48:43.391Z,3.23
2018-11-23T23:49:52.149Z,3.18
2018-11-23T23:50:43.370Z,3.23
2018-11-23T23:51:43.416Z,3.24
2018-11-23T23:52:44.190Z,3.34
2018-11-23T23:53:43.346Z,3.23
2018-11-23T23:54:43.393Z,3.23
2018-11-23T23:55:44.183Z,3.24
2018-11-23T23:56:44.250Z,3.28
2018-11-23T23:57:43.324Z,3.15
2018-11-23T23:58:43.292Z,3.12
2018-11-23T23:59:51.658Z,3.09
